sensor_id;sensor_type;location;lat;lon;timestamp;P1;durP1;ratioP1;P2;durP2;ratioP2
24813;SDS011;12904;50.088;11.414;2023-03-12T00:01:34;17.42;;;12.07;;
24813;SDS011;12904;50.088;11.414;2023-03-12T00:04:00;29.55;;;13.88;;
24813;SDS011;12904;50.088;11.414;2023-03-12T00:06:26;22.65;;;13.15;;
24813;SDS011;12904;50.088;11.414;2023-03-12T00:08:52;33.05;;;17.25;;
24813;SDS011;12904;50.088;11.414;2023-03-12T00:11:18;26.55;;;16.70;;
24813;SDS011;12904;50.088;11.414;2023-03-12T00:13:48;15.48;;;11.25;;
24813;SDS011;12904;50.088;11.414;2023-03-12T00:16:17;15.38;;;9.10;;
24813;SDS011;12904;50.088;11.414;2023-03-12T00:18:43;17.33;;;7.85;;
24813;SDS011;12904;50.088;11.414;2023-03-12T00:21:12;11.80;;;8.15;;
24813;SDS011;12904;50.088;11.414;2023-03-12T00:23:38;9.70;;;6.40;;
24813;SDS011;12904;50.088;11.414;2023-03-12T00:26:08;12.65;;;8.10;;
24813;SDS011;12904;50.088;11.414;2023-03-12T00:28:35;20.05;;;15.70;;
24813;SDS011;12904;50.088;11.414;2023-03-12T00:31:23;16.30;;;11.52;;
24813;SDS011;12904;50.088;11.414;2023-03-12T00:33:51;12.93;;;7.57;;
24813;SDS011;12904;50.088;11.414;2023-03-12T00:36:17;9.80;;;7.97;;
24813;SDS011;12904;50.088;11.414;2023-03-12T00:38:45;12.73;;;9.32;;
24813;SDS011;12904;50.088;11.414;2023-03-12T00:41:11;10.38;;;8.13;;
24813;SDS011;12904;50.088;11.414;2023-03-12T00:43:37;9.63;;;8.30;;
24813;SDS011;12904;50.088;11.414;2023-03-12T00:46:03;14.55;;;9.40;;
24813;SDS011;12904;50.088;11.414;2023-03-12T00:48:28;12.88;;;8.57;;
24813;SDS011;12904;50.088;11.414;2023-03-12T00:50:54;12.20;;;8.25;;
24813;SDS011;12904;50.088;11.414;2023-03-12T00:53:19;12.65;;;8.77;;
24813;SDS011;12904;50.088;11.414;2023-03-12T00:55:45;13.00;;;8.57;;
24813;SDS011;12904;50.088;11.414;2023-03-12T00:58:11;12.27;;;8.13;;
24813;SDS011;12904;50.088;11.414;2023-03-12T01:00:37;13.32;;;7.53;;
24813;SDS011;12904;50.088;11.414;2023-03-12T01:03:02;15.38;;;8.15;;
24813;SDS011;12904;50.088;11.414;2023-03-12T01:05:28;13.23;;;8.95;;
24813;SDS011;12904;50.088;11.414;2023-03-12T01:07:54;12.48;;;8.38;;
24813;SDS011;12904;50.088;11.414;2023-03-12T01:10:20;13.48;;;8.32;;
24813;SDS011;12904;50.088;11.414;2023-03-12T01:12:46;12.55;;;7.63;;
24813;SDS011;12904;50.088;11.414;2023-03-12T01:15:12;15.77;;;7.70;;
24813;SDS011;12904;50.088;11.414;2023-03-12T01:17:39;14.10;;;8.15;;
24813;SDS011;12904;50.088;11.414;2023-03-12T01:20:05;10.98;;;7.95;;
24813;SDS011;12904;50.088;11.414;2023-03-12T01:22:32;11.05;;;6.93;;
24813;SDS011;12904;50.088;11.414;2023-03-12T01:24:58;10.07;;;8.20;;
24813;SDS011;12904;50.088;11.414;2023-03-12T01:27:23;10.98;;;9.05;;
24813;SDS011;12904;50.088;11.414;2023-03-12T01:29:49;13.48;;;8.75;;
24813;SDS011;12904;50.088;11.414;2023-03-12T01:32:15;18.75;;;10.65;;
24813;SDS011;12904;50.088;11.414;2023-03-12T01:34:41;19.10;;;11.10;;
24813;SDS011;12904;50.088;11.414;2023-03-12T01:37:07;15.98;;;11.10;;
24813;SDS011;12904;50.088;11.414;2023-03-12T01:39:33;17.95;;;10.88;;
24813;SDS011;12904;50.088;11.414;2023-03-12T01:41:58;17.00;;;10.88;;
24813;SDS011;12904;50.088;11.414;2023-03-12T01:44:24;17.40;;;10.13;;
24813;SDS011;12904;50.088;11.414;2023-03-12T01:46:50;13.68;;;10.50;;
24813;SDS011;12904;50.088;11.414;2023-03-12T01:54:17;13.43;;;9.80;;
24813;SDS011;12904;50.088;11.414;2023-03-12T01:56:47;19.63;;;10.85;;
24813;SDS011;12904;50.088;11.414;2023-03-12T01:59:16;23.38;;;13.25;;
24813;SDS011;12904;50.088;11.414;2023-03-12T02:01:46;37.67;;;19.20;;
24813;SDS011;12904;50.088;11.414;2023-03-12T02:04:14;26.50;;;15.07;;
24813;SDS011;12904;50.088;11.414;2023-03-12T02:06:52;28.80;;;17.20;;
24813;SDS011;12904;50.088;11.414;2023-03-12T02:09:25;36.63;;;17.23;;
24813;SDS011;12904;50.088;11.414;2023-03-12T02:11:50;31.15;;;15.18;;
24813;SDS011;12904;50.088;11.414;2023-03-12T02:14:16;40.28;;;17.77;;
24813;SDS011;12904;50.088;11.414;2023-03-12T02:16:42;36.40;;;17.17;;
24813;SDS011;12904;50.088;11.414;2023-03-12T02:19:12;15.73;;;10.02;;
24813;SDS011;12904;50.088;11.414;2023-03-12T02:21:56;12.15;;;9.18;;
24813;SDS011;12904;50.088;11.414;2023-03-12T02:24:34;16.65;;;9.27;;
24813;SDS011;12904;50.088;11.414;2023-03-12T02:27:05;13.35;;;9.38;;
24813;SDS011;12904;50.088;11.414;2023-03-12T02:29:32;20.75;;;11.02;;
24813;SDS011;12904;50.088;11.414;2023-03-12T02:31:59;26.45;;;12.35;;
24813;SDS011;12904;50.088;11.414;2023-03-12T02:34:28;27.42;;;12.18;;
24813;SDS011;12904;50.088;11.414;2023-03-12T02:36:53;24.52;;;12.43;;
24813;SDS011;12904;50.088;11.414;2023-03-12T02:39:19;25.63;;;12.88;;
24813;SDS011;12904;50.088;11.414;2023-03-12T02:41:47;23.35;;;11.82;;
24813;SDS011;12904;50.088;11.414;2023-03-12T02:44:24;18.15;;;11.75;;
24813;SDS011;12904;50.088;11.414;2023-03-12T02:46:54;13.48;;;9.40;;
24813;SDS011;12904;50.088;11.414;2023-03-12T02:49:22;13.02;;;9.55;;
24813;SDS011;12904;50.088;11.414;2023-03-12T02:51:50;26.35;;;11.93;;
24813;SDS011;12904;50.088;11.414;2023-03-12T02:54:17;44.45;;;15.43;;
24813;SDS011;12904;50.088;11.414;2023-03-12T02:56:44;22.33;;;11.00;;
24813;SDS011;12904;50.088;11.414;2023-03-12T02:59:10;17.52;;;9.95;;
24813;SDS011;12904;50.088;11.414;2023-03-12T03:01:37;11.88;;;8.70;;
24813;SDS011;12904;50.088;11.414;2023-03-12T03:04:04;16.98;;;7.38;;
24813;SDS011;12904;50.088;11.414;2023-03-12T03:06:32;14.02;;;6.97;;
24813;SDS011;12904;50.088;11.414;2023-03-12T03:08:59;19.33;;;10.18;;
24813;SDS011;12904;50.088;11.414;2023-03-12T03:11:26;8.32;;;7.43;;
24813;SDS011;12904;50.088;11.414;2023-03-12T03:13:52;8.93;;;6.40;;
24813;SDS011;12904;50.088;11.414;2023-03-12T03:16:18;10.60;;;7.68;;
24813;SDS011;12904;50.088;11.414;2023-03-12T03:18:44;11.65;;;7.47;;
24813;SDS011;12904;50.088;11.414;2023-03-12T03:21:10;27.08;;;10.63;;
24813;SDS011;12904;50.088;11.414;2023-03-12T03:23:41;17.33;;;10.27;;
24813;SDS011;12904;50.088;11.414;2023-03-12T03:26:11;13.02;;;7.65;;
24813;SDS011;12904;50.088;11.414;2023-03-12T03:28:37;11.70;;;7.75;;
24813;SDS011;12904;50.088;11.414;2023-03-12T03:31:03;18.67;;;10.35;;
24813;SDS011;12904;50.088;11.414;2023-03-12T03:33:30;15.00;;;8.38;;
24813;SDS011;12904;50.088;11.414;2023-03-12T03:35:56;14.07;;;8.65;;
24813;SDS011;12904;50.088;11.414;2023-03-12T03:38:24;29.13;;;12.98;;
24813;SDS011;12904;50.088;11.414;2023-03-12T03:40:51;25.45;;;12.77;;
24813;SDS011;12904;50.088;11.414;2023-03-12T03:43:18;12.27;;;7.55;;
24813;SDS011;12904;50.088;11.414;2023-03-12T03:45:43;11.52;;;7.90;;
24813;SDS011;12904;50.088;11.414;2023-03-12T03:48:12;20.13;;;11.32;;
24813;SDS011;12904;50.088;11.414;2023-03-12T03:50:39;14.85;;;9.10;;
24813;SDS011;12904;50.088;11.414;2023-03-12T03:53:06;15.65;;;9.60;;
24813;SDS011;12904;50.088;11.414;2023-03-12T03:55:37;14.63;;;8.93;;
24813;SDS011;12904;50.088;11.414;2023-03-12T03:58:04;21.27;;;9.52;;
24813;SDS011;12904;50.088;11.414;2023-03-12T04:00:30;12.10;;;9.52;;
24813;SDS011;12904;50.088;11.414;2023-03-12T04:02:56;21.90;;;10.68;;
24813;SDS011;12904;50.088;11.414;2023-03-12T04:05:21;21.73;;;10.52;;
24813;SDS011;12904;50.088;11.414;2023-03-12T04:07:47;18.23;;;8.50;;
24813;SDS011;12904;50.088;11.414;2023-03-12T04:10:13;9.43;;;6.25;;
24813;SDS011;12904;50.088;11.414;2023-03-12T04:12:39;14.13;;;7.43;;
24813;SDS011;12904;50.088;11.414;2023-03-12T04:15:04;14.45;;;8.07;;
24813;SDS011;12904;50.088;11.414;2023-03-12T04:17:30;24.83;;;8.20;;
24813;SDS011;12904;50.088;11.414;2023-03-12T04:19:56;33.78;;;11.05;;
24813;SDS011;12904;50.088;11.414;2023-03-12T04:22:21;18.83;;;10.18;;
24813;SDS011;12904;50.088;11.414;2023-03-12T04:24:47;33.03;;;13.38;;
24813;SDS011;12904;50.088;11.414;2023-03-12T04:27:13;18.80;;;8.50;;
24813;SDS011;12904;50.088;11.414;2023-03-12T04:29:38;15.50;;;8.52;;
24813;SDS011;12904;50.088;11.414;2023-03-12T04:32:06;14.40;;;8.50;;
24813;SDS011;12904;50.088;11.414;2023-03-12T04:34:31;23.20;;;11.10;;
24813;SDS011;12904;50.088;11.414;2023-03-12T04:36:59;26.27;;;12.43;;
24813;SDS011;12904;50.088;11.414;2023-03-12T04:39:25;17.23;;;10.30;;
24813;SDS011;12904;50.088;11.414;2023-03-12T04:41:51;19.08;;;11.20;;
24813;SDS011;12904;50.088;11.414;2023-03-12T04:44:16;12.98;;;8.73;;
24813;SDS011;12904;50.088;11.414;2023-03-12T04:46:42;14.43;;;7.10;;
24813;SDS011;12904;50.088;11.414;2023-03-12T04:49:08;8.55;;;6.07;;
24813;SDS011;12904;50.088;11.414;2023-03-12T04:51:33;7.75;;;6.18;;
24813;SDS011;12904;50.088;11.414;2023-03-12T04:53:59;8.88;;;5.47;;
24813;SDS011;12904;50.088;11.414;2023-03-12T04:56:25;9.63;;;5.90;;
24813;SDS011;12904;50.088;11.414;2023-03-12T04:58:50;8.32;;;5.65;;
24813;SDS011;12904;50.088;11.414;2023-03-12T05:01:24;9.20;;;6.05;;
24813;SDS011;12904;50.088;11.414;2023-03-12T05:03:51;7.53;;;5.60;;
24813;SDS011;12904;50.088;11.414;2023-03-12T05:06:18;8.90;;;5.95;;
24813;SDS011;12904;50.088;11.414;2023-03-12T05:08:44;9.38;;;7.07;;
24813;SDS011;12904;50.088;11.414;2023-03-12T05:11:10;17.02;;;10.95;;
24813;SDS011;12904;50.088;11.414;2023-03-12T05:13:36;13.60;;;7.57;;
24813;SDS011;12904;50.088;11.414;2023-03-12T05:16:02;13.75;;;9.77;;
24813;SDS011;12904;50.088;11.414;2023-03-12T05:18:28;13.43;;;8.73;;
24813;SDS011;12904;50.088;11.414;2023-03-12T05:21:00;13.48;;;10.65;;
24813;SDS011;12904;50.088;11.414;2023-03-12T05:23:28;15.30;;;10.52;;
24813;SDS011;12904;50.088;11.414;2023-03-12T05:25:54;9.27;;;6.85;;
24813;SDS011;12904;50.088;11.414;2023-03-12T05:28:20;10.27;;;6.78;;
24813;SDS011;12904;50.088;11.414;2023-03-12T05:30:51;16.70;;;9.63;;
24813;SDS011;12904;50.088;11.414;2023-03-12T05:33:33;11.20;;;7.50;;
24813;SDS011;12904;50.088;11.414;2023-03-12T05:35:59;7.28;;;5.93;;
24813;SDS011;12904;50.088;11.414;2023-03-12T05:38:24;11.43;;;7.45;;
24813;SDS011;12904;50.088;11.414;2023-03-12T05:40:51;13.80;;;8.02;;
24813;SDS011;12904;50.088;11.414;2023-03-12T05:43:21;11.77;;;6.88;;
24813;SDS011;12904;50.088;11.414;2023-03-12T05:45:47;15.18;;;7.90;;
24813;SDS011;12904;50.088;11.414;2023-03-12T05:48:13;12.05;;;6.95;;
24813;SDS011;12904;50.088;11.414;2023-03-12T05:50:38;12.73;;;7.65;;
24813;SDS011;12904;50.088;11.414;2023-03-12T05:53:04;12.85;;;8.45;;
24813;SDS011;12904;50.088;11.414;2023-03-12T05:55:33;10.73;;;8.00;;
24813;SDS011;12904;50.088;11.414;2023-03-12T05:57:59;7.20;;;5.20;;
24813;SDS011;12904;50.088;11.414;2023-03-12T06:00:25;12.60;;;6.03;;
24813;SDS011;12904;50.088;11.414;2023-03-12T06:02:50;10.88;;;6.28;;
24813;SDS011;12904;50.088;11.414;2023-03-12T06:05:16;16.15;;;7.05;;
24813;SDS011;12904;50.088;11.414;2023-03-12T06:07:42;10.57;;;6.60;;
24813;SDS011;12904;50.088;11.414;2023-03-12T06:10:07;19.38;;;7.90;;
24813;SDS011;12904;50.088;11.414;2023-03-12T06:12:34;14.85;;;7.25;;
24813;SDS011;12904;50.088;11.414;2023-03-12T06:14:59;7.65;;;6.47;;
24813;SDS011;12904;50.088;11.414;2023-03-12T06:17:25;8.27;;;5.85;;
24813;SDS011;12904;50.088;11.414;2023-03-12T06:19:52;8.85;;;5.97;;
24813;SDS011;12904;50.088;11.414;2023-03-12T06:22:18;14.68;;;6.70;;
24813;SDS011;12904;50.088;11.414;2023-03-12T06:24:44;16.92;;;8.35;;
24813;SDS011;12904;50.088;11.414;2023-03-12T06:27:11;15.00;;;9.27;;
24813;SDS011;12904;50.088;11.414;2023-03-12T06:29:38;17.00;;;6.88;;
24813;SDS011;12904;50.088;11.414;2023-03-12T06:32:04;9.88;;;5.10;;
24813;SDS011;12904;50.088;11.414;2023-03-12T06:34:30;17.05;;;5.75;;
24813;SDS011;12904;50.088;11.414;2023-03-12T06:36:56;11.60;;;5.78;;
24813;SDS011;12904;50.088;11.414;2023-03-12T06:39:21;24.00;;;9.35;;
24813;SDS011;12904;50.088;11.414;2023-03-12T06:41:47;7.90;;;3.58;;
24813;SDS011;12904;50.088;11.414;2023-03-12T06:44:13;11.30;;;4.60;;
24813;SDS011;12904;50.088;11.414;2023-03-12T06:46:38;5.18;;;4.30;;
24813;SDS011;12904;50.088;11.414;2023-03-12T06:49:05;6.25;;;5.50;;
24813;SDS011;12904;50.088;11.414;2023-03-12T06:51:31;5.80;;;3.63;;
24813;SDS011;12904;50.088;11.414;2023-03-12T06:53:57;5.97;;;3.95;;
24813;SDS011;12904;50.088;11.414;2023-03-12T06:56:25;6.10;;;4.60;;
24813;SDS011;12904;50.088;11.414;2023-03-12T06:58:50;6.63;;;4.22;;
24813;SDS011;12904;50.088;11.414;2023-03-12T07:01:16;5.65;;;4.65;;
24813;SDS011;12904;50.088;11.414;2023-03-12T07:03:42;6.53;;;4.55;;
24813;SDS011;12904;50.088;11.414;2023-03-12T07:06:28;4.57;;;4.18;;
24813;SDS011;12904;50.088;11.414;2023-03-12T07:08:53;6.18;;;4.38;;
24813;SDS011;12904;50.088;11.414;2023-03-12T07:11:19;5.45;;;3.63;;
24813;SDS011;12904;50.088;11.414;2023-03-12T07:13:44;7.72;;;3.70;;
24813;SDS011;12904;50.088;11.414;2023-03-12T07:16:10;4.95;;;3.38;;
24813;SDS011;12904;50.088;11.414;2023-03-12T07:18:36;5.13;;;3.15;;
24813;SDS011;12904;50.088;11.414;2023-03-12T07:21:02;5.32;;;3.33;;
24813;SDS011;12904;50.088;11.414;2023-03-12T07:23:27;4.35;;;3.38;;
24813;SDS011;12904;50.088;11.414;2023-03-12T07:25:53;6.75;;;3.83;;
24813;SDS011;12904;50.088;11.414;2023-03-12T07:28:19;9.05;;;4.18;;
24813;SDS011;12904;50.088;11.414;2023-03-12T07:30:46;7.05;;;3.55;;
24813;SDS011;12904;50.088;11.414;2023-03-12T07:33:15;4.18;;;3.30;;
24813;SDS011;12904;50.088;11.414;2023-03-12T07:35:44;5.60;;;3.47;;
24813;SDS011;12904;50.088;11.414;2023-03-12T07:38:10;6.43;;;3.65;;
24813;SDS011;12904;50.088;11.414;2023-03-12T07:40:36;11.50;;;4.07;;
24813;SDS011;12904;50.088;11.414;2023-03-12T07:43:02;5.57;;;3.78;;
24813;SDS011;12904;50.088;11.414;2023-03-12T07:45:30;8.65;;;4.35;;
24813;SDS011;12904;50.088;11.414;2023-03-12T07:47:56;5.38;;;3.90;;
24813;SDS011;12904;50.088;11.414;2023-03-12T07:50:22;6.18;;;4.63;;
24813;SDS011;12904;50.088;11.414;2023-03-12T07:52:47;9.43;;;4.47;;
24813;SDS011;12904;50.088;11.414;2023-03-12T07:55:13;5.80;;;4.28;;
24813;SDS011;12904;50.088;11.414;2023-03-12T07:57:39;4.80;;;2.58;;
24813;SDS011;12904;50.088;11.414;2023-03-12T08:00:04;5.10;;;3.28;;
24813;SDS011;12904;50.088;11.414;2023-03-12T08:02:32;4.40;;;2.85;;
24813;SDS011;12904;50.088;11.414;2023-03-12T08:04:58;5.43;;;2.67;;
24813;SDS011;12904;50.088;11.414;2023-03-12T08:07:24;3.30;;;2.08;;
24813;SDS011;12904;50.088;11.414;2023-03-12T08:09:50;4.97;;;3.00;;
24813;SDS011;12904;50.088;11.414;2023-03-12T08:12:15;6.88;;;2.80;;
24813;SDS011;12904;50.088;11.414;2023-03-12T08:14:41;4.88;;;3.15;;
24813;SDS011;12904;50.088;11.414;2023-03-12T08:17:07;4.55;;;2.47;;
24813;SDS011;12904;50.088;11.414;2023-03-12T08:19:32;7.43;;;3.08;;
24813;SDS011;12904;50.088;11.414;2023-03-12T08:21:58;5.53;;;3.53;;
24813;SDS011;12904;50.088;11.414;2023-03-12T08:24:23;3.92;;;3.03;;
24813;SDS011;12904;50.088;11.414;2023-03-12T08:26:49;4.10;;;3.03;;
24813;SDS011;12904;50.088;11.414;2023-03-12T08:29:15;4.90;;;3.83;;
24813;SDS011;12904;50.088;11.414;2023-03-12T08:31:41;5.47;;;3.10;;
24813;SDS011;12904;50.088;11.414;2023-03-12T08:34:07;14.70;;;3.15;;
24813;SDS011;12904;50.088;11.414;2023-03-12T08:36:33;4.45;;;2.55;;
24813;SDS011;12904;50.088;11.414;2023-03-12T08:39:01;6.03;;;3.35;;
24813;SDS011;12904;50.088;11.414;2023-03-12T08:41:27;5.13;;;3.38;;
24813;SDS011;12904;50.088;11.414;2023-03-12T08:43:54;4.10;;;2.85;;
24813;SDS011;12904;50.088;11.414;2023-03-12T08:46:19;6.85;;;3.03;;
24813;SDS011;12904;50.088;11.414;2023-03-12T08:48:45;18.92;;;5.63;;
24813;SDS011;12904;50.088;11.414;2023-03-12T08:51:11;4.88;;;2.35;;
24813;SDS011;12904;50.088;11.414;2023-03-12T08:53:37;8.27;;;3.55;;
24813;SDS011;12904;50.088;11.414;2023-03-12T08:56:03;6.40;;;2.38;;
24813;SDS011;12904;50.088;11.414;2023-03-12T08:58:29;7.82;;;3.78;;
24813;SDS011;12904;50.088;11.414;2023-03-12T09:00:55;5.35;;;4.13;;
24813;SDS011;12904;50.088;11.414;2023-03-12T09:03:21;5.68;;;3.95;;
24813;SDS011;12904;50.088;11.414;2023-03-12T09:05:47;7.18;;;4.57;;
24813;SDS011;12904;50.088;11.414;2023-03-12T09:08:13;9.23;;;3.80;;
24813;SDS011;12904;50.088;11.414;2023-03-12T09:10:39;5.60;;;3.97;;
24813;SDS011;12904;50.088;11.414;2023-03-12T09:13:10;5.25;;;4.15;;
24813;SDS011;12904;50.088;11.414;2023-03-12T09:15:36;4.18;;;3.50;;
24813;SDS011;12904;50.088;11.414;2023-03-12T09:18:02;7.68;;;4.18;;
24813;SDS011;12904;50.088;11.414;2023-03-12T09:20:27;7.05;;;4.07;;
24813;SDS011;12904;50.088;11.414;2023-03-12T09:22:53;5.85;;;3.88;;
24813;SDS011;12904;50.088;11.414;2023-03-12T09:25:18;6.68;;;3.97;;
24813;SDS011;12904;50.088;11.414;2023-03-12T09:27:46;5.00;;;2.95;;
24813;SDS011;12904;50.088;11.414;2023-03-12T09:30:16;7.72;;;3.97;;
24813;SDS011;12904;50.088;11.414;2023-03-12T09:32:43;5.85;;;2.83;;
24813;SDS011;12904;50.088;11.414;2023-03-12T09:35:10;7.32;;;3.40;;
24813;SDS011;12904;50.088;11.414;2023-03-12T09:37:36;4.28;;;2.60;;
24813;SDS011;12904;50.088;11.414;2023-03-12T09:40:02;7.90;;;3.20;;
24813;SDS011;12904;50.088;11.414;2023-03-12T09:45:15;4.50;;;3.15;;
24813;SDS011;12904;50.088;11.414;2023-03-12T09:47:48;5.57;;;2.45;;
24813;SDS011;12904;50.088;11.414;2023-03-12T09:50:18;4.03;;;2.50;;
24813;SDS011;12904;50.088;11.414;2023-03-12T09:52:59;6.20;;;2.88;;
24813;SDS011;12904;50.088;11.414;2023-03-12T09:55:36;4.90;;;2.42;;
24813;SDS011;12904;50.088;11.414;2023-03-12T09:58:03;9.82;;;2.25;;
24813;SDS011;12904;50.088;11.414;2023-03-12T10:00:30;3.95;;;2.28;;
24813;SDS011;12904;50.088;11.414;2023-03-12T10:10:55;4.40;;;1.58;;
24813;SDS011;12904;50.088;11.414;2023-03-12T10:13:51;2.60;;;1.80;;
24813;SDS011;12904;50.088;11.414;2023-03-12T10:19:09;3.75;;;1.90;;
24813;SDS011;12904;50.088;11.414;2023-03-12T10:22:06;4.45;;;1.95;;
24813;SDS011;12904;50.088;11.414;2023-03-12T10:27:24;3.03;;;1.70;;
24813;SDS011;12904;50.088;11.414;2023-03-12T10:29:54;7.65;;;2.03;;
24813;SDS011;12904;50.088;11.414;2023-03-12T10:34:50;3.30;;;1.70;;
24813;SDS011;12904;50.088;11.414;2023-03-12T10:37:38;3.00;;;1.40;;
24813;SDS011;12904;50.088;11.414;2023-03-12T10:40:17;4.32;;;1.80;;
24813;SDS011;12904;50.088;11.414;2023-03-12T10:42:51;7.47;;;1.63;;
24813;SDS011;12904;50.088;11.414;2023-03-12T10:48:20;3.83;;;1.67;;
24813;SDS011;12904;50.088;11.414;2023-03-12T10:53:33;3.30;;;1.90;;
24813;SDS011;12904;50.088;11.414;2023-03-12T11:01:15;2.00;;;1.20;;
24813;SDS011;12904;50.088;11.414;2023-03-12T11:03:43;4.18;;;1.60;;
24813;SDS011;12904;50.088;11.414;2023-03-12T11:06:18;2.47;;;1.52;;
24813;SDS011;12904;50.088;11.414;2023-03-12T11:09:32;3.17;;;1.25;;
24813;SDS011;12904;50.088;11.414;2023-03-12T11:11:33;6.20;;;1.30;;
24813;SDS011;12904;50.088;11.414;2023-03-12T11:16:36;5.35;;;1.42;;
24813;SDS011;12904;50.088;11.414;2023-03-12T11:19:03;3.35;;;1.30;;
24813;SDS011;12904;50.088;11.414;2023-03-12T11:21:30;1.58;;;1.00;;
24813;SDS011;12904;50.088;11.414;2023-03-12T11:29:44;1.73;;;1.20;;
24813;SDS011;12904;50.088;11.414;2023-03-12T11:34:41;4.45;;;2.15;;
24813;SDS011;12904;50.088;11.414;2023-03-12T11:37:19;5.97;;;1.70;;
24813;SDS011;12904;50.088;11.414;2023-03-12T11:56:44;2.15;;;1.35;;
24813;SDS011;12904;50.088;11.414;2023-03-12T12:35:53;5.38;;;2.92;;
24813;SDS011;12904;50.088;11.414;2023-03-12T12:38:23;3.17;;;2.17;;
24813;SDS011;12904;50.088;11.414;2023-03-12T12:41:17;4.05;;;2.25;;
24813;SDS011;12904;50.088;11.414;2023-03-12T12:43:48;5.47;;;3.05;;
24813;SDS011;12904;50.088;11.414;2023-03-12T12:46:17;6.32;;;2.45;;
24813;SDS011;12904;50.088;11.414;2023-03-12T12:51:20;7.45;;;2.50;;
24813;SDS011;12904;50.088;11.414;2023-03-12T13:01:56;7.20;;;4.13;;
24813;SDS011;12904;50.088;11.414;2023-03-12T13:04:30;5.90;;;4.13;;
24813;SDS011;12904;50.088;11.414;2023-03-12T13:07:02;6.75;;;3.67;;
24813;SDS011;12904;50.088;11.414;2023-03-12T13:15:47;6.85;;;5.03;;
24813;SDS011;12904;50.088;11.414;2023-03-12T13:18:08;7.40;;;3.90;;
24813;SDS011;12904;50.088;11.414;2023-03-12T13:20:59;3.83;;;3.05;;
24813;SDS011;12904;50.088;11.414;2023-03-12T13:29:54;6.10;;;3.17;;
24813;SDS011;12904;50.088;11.414;2023-03-12T13:35:06;5.38;;;3.13;;
24813;SDS011;12904;50.088;11.414;2023-03-12T13:48:29;5.22;;;3.90;;
24813;SDS011;12904;50.088;11.414;2023-03-12T13:50:57;8.80;;;3.97;;
24813;SDS011;12904;50.088;11.414;2023-03-12T13:53:32;9.75;;;4.40;;
24813;SDS011;12904;50.088;11.414;2023-03-12T13:56:08;4.90;;;4.10;;
24813;SDS011;12904;50.088;11.414;2023-03-12T14:01:33;8.20;;;4.03;;
24813;SDS011;12904;50.088;11.414;2023-03-12T14:04:06;10.52;;;3.85;;
24813;SDS011;12904;50.088;11.414;2023-03-12T14:09:31;8.90;;;3.67;;
24813;SDS011;12904;50.088;11.414;2023-03-12T14:17:36;11.27;;;4.20;;
24813;SDS011;12904;50.088;11.414;2023-03-12T14:20:36;6.82;;;3.92;;
24813;SDS011;12904;50.088;11.414;2023-03-12T14:22:58;7.15;;;3.70;;
24813;SDS011;12904;50.088;11.414;2023-03-12T14:25:43;5.15;;;3.22;;
24813;SDS011;12904;50.088;11.414;2023-03-12T14:28:13;6.95;;;5.00;;
24813;SDS011;12904;50.088;11.414;2023-03-12T14:30:49;7.05;;;3.47;;
24813;SDS011;12904;50.088;11.414;2023-03-12T14:33:35;12.85;;;3.22;;
24813;SDS011;12904;50.088;11.414;2023-03-12T14:42:01;9.68;;;3.38;;
24813;SDS011;12904;50.088;11.414;2023-03-12T14:44:29;6.72;;;3.05;;
24813;SDS011;12904;50.088;11.414;2023-03-12T14:47:01;4.70;;;3.50;;
24813;SDS011;12904;50.088;11.414;2023-03-12T14:49:31;9.10;;;3.67;;
24813;SDS011;12904;50.088;11.414;2023-03-12T14:52:04;5.65;;;2.95;;
24813;SDS011;12904;50.088;11.414;2023-03-12T14:54:30;7.75;;;3.70;;
24813;SDS011;12904;50.088;11.414;2023-03-12T14:56:55;4.88;;;3.55;;
24813;SDS011;12904;50.088;11.414;2023-03-12T15:01:57;7.85;;;3.20;;
24813;SDS011;12904;50.088;11.414;2023-03-12T15:04:34;4.60;;;3.92;;
24813;SDS011;12904;50.088;11.414;2023-03-12T15:07:00;5.05;;;2.95;;
24813;SDS011;12904;50.088;11.414;2023-03-12T15:09:29;3.45;;;2.95;;
24813;SDS011;12904;50.088;11.414;2023-03-12T15:11:57;5.50;;;3.47;;
24813;SDS011;12904;50.088;11.414;2023-03-12T15:14:29;8.23;;;4.15;;
24813;SDS011;12904;50.088;11.414;2023-03-12T15:16:59;3.38;;;2.58;;
24813;SDS011;12904;50.088;11.414;2023-03-12T15:19:27;4.38;;;2.88;;
24813;SDS011;12904;50.088;11.414;2023-03-12T15:21:57;4.90;;;2.78;;
24813;SDS011;12904;50.088;11.414;2023-03-12T15:24:24;6.82;;;3.45;;
24813;SDS011;12904;50.088;11.414;2023-03-12T15:26:49;3.22;;;2.53;;
24813;SDS011;12904;50.088;11.414;2023-03-12T15:29:17;3.08;;;2.40;;
24813;SDS011;12904;50.088;11.414;2023-03-12T15:31:51;5.68;;;2.50;;
24813;SDS011;12904;50.088;11.414;2023-03-12T15:40:04;9.50;;;2.97;;
24813;SDS011;12904;50.088;11.414;2023-03-12T15:42:37;5.45;;;3.17;;
24813;SDS011;12904;50.088;11.414;2023-03-12T15:45:14;6.85;;;3.28;;
24813;SDS011;12904;50.088;11.414;2023-03-12T15:47:45;4.85;;;2.70;;
24813;SDS011;12904;50.088;11.414;2023-03-12T15:50:19;9.00;;;5.15;;
24813;SDS011;12904;50.088;11.414;2023-03-12T15:55:27;14.20;;;5.97;;
24813;SDS011;12904;50.088;11.414;2023-03-12T15:57:55;8.43;;;5.80;;
24813;SDS011;12904;50.088;11.414;2023-03-12T16:05:33;10.55;;;6.72;;
24813;SDS011;12904;50.088;11.414;2023-03-12T16:10:43;9.48;;;6.20;;
24813;SDS011;12904;50.088;11.414;2023-03-12T16:13:11;17.77;;;11.70;;
24813;SDS011;12904;50.088;11.414;2023-03-12T16:15:39;13.27;;;8.45;;
24813;SDS011;12904;50.088;11.414;2023-03-12T16:18:05;11.07;;;6.90;;
24813;SDS011;12904;50.088;11.414;2023-03-12T16:20:44;9.45;;;6.38;;
24813;SDS011;12904;50.088;11.414;2023-03-12T16:23:11;11.43;;;6.68;;
24813;SDS011;12904;50.088;11.414;2023-03-12T16:25:37;12.02;;;6.80;;
24813;SDS011;12904;50.088;11.414;2023-03-12T16:28:03;14.15;;;7.90;;
24813;SDS011;12904;50.088;11.414;2023-03-12T16:30:34;14.98;;;9.73;;
24813;SDS011;12904;50.088;11.414;2023-03-12T16:33:01;8.05;;;6.80;;
24813;SDS011;12904;50.088;11.414;2023-03-12T16:35:28;10.88;;;6.88;;
24813;SDS011;12904;50.088;11.414;2023-03-12T16:37:58;12.45;;;6.68;;
24813;SDS011;12904;50.088;11.414;2023-03-12T16:40:25;9.13;;;7.43;;
24813;SDS011;12904;50.088;11.414;2023-03-12T16:42:52;7.80;;;5.82;;
24813;SDS011;12904;50.088;11.414;2023-03-12T16:45:19;7.95;;;6.78;;
24813;SDS011;12904;50.088;11.414;2023-03-12T16:47:45;14.63;;;8.18;;
24813;SDS011;12904;50.088;11.414;2023-03-12T16:50:17;9.13;;;8.23;;
24813;SDS011;12904;50.088;11.414;2023-03-12T16:52:45;8.55;;;5.93;;
24813;SDS011;12904;50.088;11.414;2023-03-12T16:55:14;13.55;;;8.05;;
24813;SDS011;12904;50.088;11.414;2023-03-12T16:57:42;9.10;;;7.82;;
24813;SDS011;12904;50.088;11.414;2023-03-12T17:00:24;22.58;;;14.57;;
24813;SDS011;12904;50.088;11.414;2023-03-12T17:02:51;14.50;;;12.20;;
24813;SDS011;12904;50.088;11.414;2023-03-12T17:05:22;28.25;;;16.08;;
24813;SDS011;12904;50.088;11.414;2023-03-12T17:07:48;25.33;;;16.27;;
24813;SDS011;12904;50.088;11.414;2023-03-12T17:10:14;40.75;;;18.65;;
24813;SDS011;12904;50.088;11.414;2023-03-12T17:12:41;37.90;;;16.65;;
24813;SDS011;12904;50.088;11.414;2023-03-12T17:17:44;45.85;;;20.20;;
24813;SDS011;12904;50.088;11.414;2023-03-12T17:20:10;38.25;;;18.02;;
24813;SDS011;12904;50.088;11.414;2023-03-12T17:22:39;47.85;;;20.98;;
24813;SDS011;12904;50.088;11.414;2023-03-12T17:25:05;97.22;;;27.15;;
24813;SDS011;12904;50.088;11.414;2023-03-12T17:27:45;86.72;;;32.75;;